Time;durP1;ratioP1;P1;durP2;ratioP2;P2;SDS_P1;SDS_P2;PMS_P1;PMS_P2;Temp;Humidity;BMP_temperature;BMP_pressure;BME280_temperature;BME280_humidity;BME280_pressure;Samples;Min_cycle;Max_cycle;Signal;HPM_P1;HPM_P2
2023/01/28 00:01:44;;;;;;;0.40;0.40;;;;;;;3.48;87.61;96109.56;5003878;28;20045;-54
2023/01/28 00:04:10;;;;;;;0.95;0.95;;;;;;;3.03;89.13;96040.63;5004541;28;20137;-58
2023/01/28 00:06:38;;;;;;;1.00;1.00;;;;;;;0.28;90.11;95602.13;5004234;28;20081;-58
2023/01/28 00:09:04;;;;;;;0.40;0.40;;;;;;;3.46;90.89;96111.88;5004040;28;20049;-58
2023/01/28 00:11:31;;;;;;;0.60;0.60;;;;;;;3.11;91.05;96061.59;5004391;28;20239;-58
2023/01/28 00:13:58;;;;;;;0.40;0.40;;;;;;;3.41;90.86;96117.59;5004192;28;20050;-58
2023/01/28 00:16:26;;;;;;;0.40;0.40;;;;;;;3.31;91.19;96087.94;4996459;28;20051;-58
2023/01/28 00:18:53;;;;;;;0.82;0.73;;;;;;;3.35;91.80;96121.69;4985017;28;20058;-58
2023/01/28 00:21:20;;;;;;;0.50;0.50;;;;;;;3.43;91.25;96131.69;4985423;28;20544;-58
2023/01/28 00:23:51;;;;;;;0.50;0.50;;;;;;;3.35;91.03;96126.38;5004150;28;20497;-57
2023/01/28 00:26:18;;;;;;;0.50;0.50;;;;;;;3.26;92.25;96118.28;5004271;28;20053;-58
2023/01/28 00:28:45;;;;;;;0.40;0.40;;;;;;;3.41;91.89;96136.75;5003787;28;20092;-58
2023/01/28 00:31:16;;;;;;;1.00;1.00;;;;;;;3.39;90.62;96141.75;5003228;28;20094;-58
2023/01/28 00:33:44;;;;;;;0.50;0.50;;;;;;;3.38;90.19;96148.38;5003849;28;20089;-58
2023/01/28 00:36:12;;;;;;;0.40;0.40;;;;;;;3.37;90.21;96149.50;5004509;28;20084;-57
2023/01/28 00:38:39;;;;;;;0.40;0.40;;;;;;;3.34;91.03;96147.47;5004329;28;20064;-57
2023/01/28 00:41:07;;;;;;;0.40;0.40;;;;;;;3.31;90.26;96153.63;5004531;28;20050;-59
2023/01/28 00:43:34;;;;;;;0.40;0.40;;;;;;;3.29;90.91;96161.38;5002259;28;20054;-58
2023/01/28 00:46:00;;;;;;;0.40;0.40;;;;;;;3.38;89.40;96164.81;5003873;28;20084;-57
2023/01/28 00:48:27;;;;;;;0.40;0.40;;;;;;;3.45;89.66;96164.19;5004289;28;20053;-58
2023/01/28 00:50:54;;;;;;;0.73;0.60;;;;;;;3.18;89.67;96124.69;5004392;28;20108;-57
2023/01/28 00:53:20;;;;;;;0.88;0.80;;;;;;;3.28;90.57;96148.84;5002352;28;20064;-57
2023/01/28 00:55:47;;;;;;;0.73;0.65;;;;;;;3.25;90.02;96160.50;5004337;28;20046;-58
2023/01/28 00:58:13;;;;;;;0.40;0.40;;;;;;;3.24;90.34;96166.31;5008056;28;20060;-57
2023/01/28 01:00:40;;;;;;;0.45;0.45;;;;;;;3.17;92.08;96164.16;5007273;28;20912;-57
2023/01/28 01:03:07;;;;;;;1.02;0.95;;;;;;;3.17;91.37;96164.16;5008023;28;20452;-58
2023/01/28 01:05:33;;;;;;;0.40;0.40;;;;;;;3.05;93.40;96164.19;4987970;28;20050;-57
2023/01/28 01:08:00;;;;;;;0.40;0.40;;;;;;;3.10;93.81;96166.66;4988341;28;20059;-57
2023/01/28 01:10:27;;;;;;;0.40;0.40;;;;;;;3.18;93.34;96171.19;5004566;28;20057;-57
2023/01/28 01:12:56;;;;;;;0.40;0.40;;;;;;;3.19;93.13;96172.00;5007672;28;20077;-57
2023/01/28 01:15:23;;;;;;;2.40;1.10;;;;;;;3.00;93.35;96153.47;5007308;28;20104;-58
2023/01/28 01:17:50;;;;;;;0.40;0.40;;;;;;;2.56;94.65;96099.72;5007434;28;20722;-57
2023/01/28 01:20:19;;;;;;;0.60;0.60;;;;;;;3.08;94.49;96161.53;5007132;28;20564;-57
2023/01/28 01:22:46;;;;;;;0.40;0.40;;;;;;;3.07;93.71;96164.59;5007548;28;20588;-57
2023/01/28 01:25:15;;;;;;;0.40;0.40;;;;;;;3.11;93.47;96171.00;5006941;28;20092;-57
2023/01/28 01:27:44;;;;;;;0.50;0.50;;;;;;;3.00;92.93;96154.25;5006236;28;20132;-57
2023/01/28 01:30:11;;;;;;;0.40;0.40;;;;;;;3.14;93.47;96164.84;5006723;28;20140;-57
2023/01/28 01:32:38;;;;;;;0.50;0.50;;;;;;;3.11;91.73;96176.47;5005899;28;20054;-58
2023/01/28 01:35:07;;;;;;;0.40;0.40;;;;;;;3.01;92.69;96149.56;5006667;28;20057;-57
2023/01/28 01:37:35;;;;;;;0.50;0.50;;;;;;;3.06;91.65;96158.38;5006628;28;20484;-58
2023/01/28 01:40:03;;;;;;;0.40;0.40;;;;;;;2.67;90.54;96098.13;5007104;28;20057;-58
2023/01/28 01:42:33;;;;;;;0.40;0.40;;;;;;;3.25;91.09;96190.59;5005585;28;20050;-57
2023/01/28 01:45:05;;;;;;;0.40;0.40;;;;;;;3.23;89.58;96179.19;5005469;28;20056;-57
2023/01/28 01:47:39;;;;;;;0.40;0.40;;;;;;;3.21;89.03;96181.47;5007247;28;20058;-57
2023/01/28 01:50:31;;;;;;;0.40;0.40;;;;;;;3.20;89.22;96185.34;5006991;28;20053;-57
2023/01/28 01:53:07;;;;;;;0.40;0.40;;;;;;;3.11;89.12;96203.84;5007056;28;20062;-58
2023/01/28 01:55:36;;;;;;;0.40;0.40;;;;;;;3.06;88.61;96191.19;5006343;28;20073;-57
2023/01/28 01:58:10;;;;;;;0.40;0.40;;;;;;;3.15;89.58;96188.31;5006872;28;20065;-57
2023/01/28 02:00:39;;;;;;;0.40;0.40;;;;;;;3.08;89.39;96196.31;5006515;28;20061;-58
2023/01/28 02:03:05;;;;;;;0.40;0.40;;;;;;;3.03;89.15;96196.53;5006577;28;20054;-57
2023/01/28 02:05:32;;;;;;;0.40;0.40;;;;;;;2.92;88.25;96174.31;5006623;28;20050;-56
2023/01/28 02:08:19;;;;;;;0.43;0.43;;;;;;;2.19;88.61;96130.88;5004038;28;20057;-57
2023/01/28 02:10:50;;;;;;;0.50;0.50;;;;;;;2.98;90.15;96194.03;5006491;28;20124;-57
2023/01/28 02:13:19;;;;;;;1.88;1.77;;;;;;;3.07;89.24;96194.69;5007233;28;20057;-57
2023/01/28 02:15:47;;;;;;;0.40;0.40;;;;;;;3.16;90.74;96189.94;5006363;28;20544;-57
2023/01/28 02:18:14;;;;;;;0.40;0.40;;;;;;;2.83;90.11;96145.47;5006566;28;20088;-57
2023/01/28 02:21:03;;;;;;;0.40;0.40;;;;;;;3.20;88.36;96198.22;5005453;28;20061;-57
2023/01/28 02:24:07;;;;;;;0.40;0.40;;;;;;;3.21;87.27;96203.34;5004698;28;20060;-57
2023/01/28 02:27:01;;;;;;;0.60;0.60;;;;;;;3.16;87.78;96206.34;5006177;28;20060;-57
2023/01/28 02:29:42;;;;;;;0.50;0.50;;;;;;;3.15;88.98;96210.19;5004258;28;20145;-57
2023/01/28 02:32:12;;;;;;;0.50;0.50;;;;;;;3.24;87.62;96213.59;5003418;28;20124;-57
2023/01/28 02:34:43;;;;;;;0.40;0.40;;;;;;;2.77;89.12;96164.06;5006813;28;20057;-57
2023/01/28 02:37:21;;;;;;;0.40;0.40;;;;;;;3.01;88.89;96220.69;5005595;28;20085;-57
2023/01/28 02:39:56;;;;;;;0.40;0.40;;;;;;;2.89;88.84;96201.56;5004563;28;20079;-56
2023/01/28 02:42:29;;;;;;;0.40;0.40;;;;;;;2.98;89.48;96221.38;5005690;28;20410;-57
2023/01/28 02:44:56;;;;;;;1.75;0.98;;;;;;;2.89;89.75;96212.50;5000011;28;20135;-57
2023/01/28 02:50:14;;;;;;;1.40;1.30;;;;;;;3.05;90.59;96224.34;5006375;28;20053;-58
2023/01/28 02:53:43;;;;;;;0.40;0.40;;;;;;;2.91;89.80;96229.34;5004300;28;20440;-57
2023/01/28 02:56:23;;;;;;;1.13;1.10;;;;;;;2.77;89.93;96231.59;5002250;28;20533;-57
2023/01/28 02:59:29;;;;;;;0.40;0.40;;;;;;;2.71;91.10;96222.03;4986482;28;20089;-59
2023/01/28 03:01:57;;;;;;;0.40;0.40;;;;;;;2.89;90.06;96231.63;5004830;28;20499;-57
2023/01/28 03:04:29;;;;;;;0.40;0.40;;;;;;;2.83;90.35;96252.13;5005681;28;20092;-58
2023/01/28 03:07:03;;;;;;;0.40;0.40;;;;;;;2.83;91.07;96252.13;5005338;28;20057;-57
2023/01/28 03:09:31;;;;;;;0.40;0.40;;;;;;;2.89;90.55;96228.91;5005680;28;20133;-57
2023/01/28 03:38:51;;;;;;;0.40;0.40;;;;;;;3.35;88.32;96239.34;5005159;28;20054;-57
2023/01/28 03:41:25;;;;;;;0.50;0.50;;;;;;;3.30;88.25;96231.41;5005024;28;20056;-57
2023/01/28 03:43:52;;;;;;;0.50;0.50;;;;;;;3.55;87.93;96251.31;4985613;28;20497;-57
2023/01/28 03:46:19;;;;;;;0.40;0.40;;;;;;;3.40;87.05;96230.91;4985108;28;20051;-57
2023/01/28 03:48:46;;;;;;;0.40;0.40;;;;;;;3.34;86.15;96240.50;4985292;28;20494;-57
2023/01/28 03:51:12;;;;;;;0.50;0.50;;;;;;;2.85;86.21;96162.34;4993840;28;20669;-57
2023/01/28 03:53:39;;;;;;;0.40;0.40;;;;;;;3.40;87.14;96250.06;5003002;28;20505;-57
2023/01/28 03:56:06;;;;;;;0.40;0.40;;;;;;;3.42;87.17;96247.81;5004895;28;20054;-57
2023/01/28 03:58:51;;;;;;;0.40;0.40;;;;;;;3.13;85.83;96206.22;5002731;28;20081;-57
2023/01/28 04:01:19;;;;;;;0.40;0.40;;;;;;;3.40;87.19;96252.81;5003458;28;20054;-57
2023/01/28 04:03:45;;;;;;;0.50;0.50;;;;;;;2.97;87.50;96189.72;5004503;28;20081;-58
2023/01/28 04:06:12;;;;;;;0.40;0.40;;;;;;;3.44;87.33;96256.47;5004164;28;20092;-57
2023/01/28 04:08:39;;;;;;;0.50;0.50;;;;;;;2.55;87.16;96130.91;5004595;28;20107;-57
2023/01/28 04:11:14;;;;;;;0.40;0.40;;;;;;;3.34;87.70;96242.44;5004895;28;20084;-56
2023/01/28 04:13:42;;;;;;;0.40;0.40;;;;;;;3.52;87.68;96257.50;5002530;28;20057;-58
2023/01/28 04:16:13;;;;;;;0.40;0.40;;;;;;;3.51;87.59;96262.16;5004940;28;20077;-57
2023/01/28 04:18:40;;;;;;;4.63;2.40;;;;;;;3.43;86.63;96271.28;5004503;28;20158;-57
2023/01/28 04:21:06;;;;;;;0.88;0.88;;;;;;;3.38;85.52;96268.81;5004300;28;20116;-57
2023/01/28 04:23:33;;;;;;;1.10;1.10;;;;;;;3.42;85.80;96275.19;5004494;28;20163;-57
2023/01/28 04:26:00;;;;;;;0.85;0.80;;;;;;;2.86;85.79;96216.69;5004290;28;20501;-57
2023/01/28 04:28:26;;;;;;;0.50;0.50;;;;;;;2.76;87.03;96202.69;5004240;28;20085;-58
2023/01/28 04:30:53;;;;;;;0.40;0.40;;;;;;;3.21;87.75;96279.97;5004456;28;20069;-57
2023/01/28 04:33:20;;;;;;;0.40;0.40;;;;;;;3.24;86.68;96273.81;5008238;28;20546;-58
2023/01/28 04:35:46;;;;;;;0.40;0.40;;;;;;;3.05;85.46;96249.75;5008151;28;20061;-57
2023/01/28 04:38:13;;;;;;;0.40;0.40;;;;;;;3.08;86.79;96259.22;5007744;28;20096;-58
2023/01/28 04:40:39;;;;;;;0.85;0.85;;;;;;;3.09;86.28;96260.81;5006864;28;20520;-57
2023/01/28 04:43:06;;;;;;;4.93;1.77;;;;;;;3.23;84.70;96285.09;5008165;28;20135;-56
2023/01/28 04:45:33;;;;;;;0.40;0.40;;;;;;;1.69;85.72;96064.78;5007860;28;20041;-57
2023/01/28 04:47:59;;;;;;;0.65;0.65;;;;;;;3.08;85.72;96292.06;5008163;28;20978;-57
2023/01/28 04:50:26;;;;;;;1.23;0.57;;;;;;;3.13;85.94;96297.28;5008004;28;20061;-57
2023/01/28 04:52:52;;;;;;;0.43;0.43;;;;;;;3.11;85.17;96297.63;5006422;28;20483;-57
2023/01/28 04:55:19;;;;;;;0.40;0.40;;;;;;;3.08;85.79;96292.06;5008300;28;20112;-57
2023/01/28 04:57:47;;;;;;;0.40;0.40;;;;;;;3.03;85.89;96295.78;5008269;28;20068;-57
2023/01/28 05:00:14;;;;;;;0.40;0.40;;;;;;;3.17;87.24;96300.13;5007883;28;20050;-56
2023/01/28 05:02:41;;;;;;;0.40;0.40;;;;;;;3.09;87.99;96302.66;5007139;28;20077;-57
2023/01/28 05:05:07;;;;;;;0.82;0.82;;;;;;;2.96;90.17;96311.97;5007731;28;20078;-57
2023/01/28 05:07:35;;;;;;;0.40;0.40;;;;;;;2.49;91.01;96247.06;5007479;28;20535;-57
2023/01/28 05:10:02;;;;;;;0.40;0.40;;;;;;;2.74;92.63;96300.63;5006884;28;20050;-57
2023/01/28 05:12:31;;;;;;;0.38;0.38;;;;;;;2.81;94.49;96320.03;5008103;28;20479;-57
2023/01/28 05:15:01;;;;;;;0.85;0.85;;;;;;;2.75;95.58;96315.94;5007701;28;20050;-58
2023/01/28 05:17:28;;;;;;;0.40;0.40;;;;;;;2.72;95.72;96311.09;5007203;28;20112;-58
2023/01/28 05:19:54;;;;;;;0.40;0.40;;;;;;;2.68;95.93;96316.47;5007523;28;20405;-57
2023/01/28 05:22:21;;;;;;;0.40;0.40;;;;;;;2.53;96.69;96294.44;5007634;28;20069;-59
2023/01/28 05:24:48;;;;;;;0.30;0.30;;;;;;;2.56;97.14;96315.66;5007716;28;20092;-57
2023/01/28 05:27:14;;;;;;;0.40;0.40;;;;;;;2.14;97.60;96256.72;5006595;28;20323;-58
2023/01/28 05:29:41;;;;;;;0.30;0.30;;;;;;;2.59;97.75;96334.09;5005787;28;20053;-57
2023/01/28 05:32:08;;;;;;;0.40;0.40;;;;;;;2.21;97.89;96289.78;5007261;28;20058;-58
2023/01/28 05:34:35;;;;;;;0.40;0.40;;;;;;;2.47;98.63;96358.63;5006980;28;20064;-59
2023/01/28 05:37:01;;;;;;;0.40;0.40;;;;;;;2.40;98.90;96320.91;5007194;28;20073;-58
2023/01/28 05:39:28;;;;;;;0.40;0.40;;;;;;;2.35;98.82;96323.88;5006882;28;20081;-58
2023/01/28 05:41:55;;;;;;;0.40;0.40;;;;;;;2.54;98.19;96408.09;5005076;28;20230;-57
2023/01/28 05:44:21;;;;;;;0.40;0.40;;;;;;;2.49;98.50;96356.38;5006146;28;20479;-57
2023/01/28 05:46:48;;;;;;;0.80;0.80;;;;;;;2.47;97.65;96353.16;5007084;28;20129;-58
2023/01/28 05:49:15;;;;;;;0.70;0.70;;;;;;;2.53;96.79;96358.09;5007038;28;20049;-57
2023/01/28 05:51:42;;;;;;;0.45;0.45;;;;;;;2.45;96.51;96361.69;5006565;28;20061;-57
2023/01/28 05:54:09;;;;;;;0.60;0.60;;;;;;;2.47;96.27;96359.44;5006297;28;20061;-57
2023/01/28 05:56:35;;;;;;;2.35;2.17;;;;;;;2.59;94.96;96366.91;5005771;28;20057;-57
2023/01/28 05:59:03;;;;;;;1.25;1.23;;;;;;;2.59;94.47;96359.47;5006422;28;20058;-57
2023/01/28 06:01:29;;;;;;;1.25;1.08;;;;;;;2.40;93.38;96336.53;5006882;28;20129;-57
2023/01/28 06:03:56;;;;;;;2.05;1.35;;;;;;;2.63;91.96;96367.81;5006607;28;20050;-59
2023/01/28 06:06:23;;;;;;;0.52;0.52;;;;;;;2.63;91.00;96373.28;5006366;28;20112;-58
2023/01/28 06:08:50;;;;;;;0.60;0.60;;;;;;;2.24;90.64;96335.53;5006608;28;20601;-57
2023/01/28 06:11:16;;;;;;;0.40;0.40;;;;;;;2.74;91.75;96374.47;5006000;28;20182;-57
2023/01/28 06:13:45;;;;;;;0.45;0.45;;;;;;;2.82;91.99;96379.03;5004862;28;20133;-58
2023/01/28 06:16:11;;;;;;;0.40;0.40;;;;;;;1.90;91.11;96251.19;5006404;28;20092;-56
2023/01/28 06:18:40;;;;;;;2.80;2.60;;;;;;;2.66;91.18;96339.81;5006446;28;20297;-57
2023/01/28 06:21:07;;;;;;;0.40;0.40;;;;;;;3.06;90.82;96404.56;5006551;28;20539;-58
2023/01/28 06:23:33;;;;;;;1.88;1.88;;;;;;;3.02;89.70;96386.41;5006524;28;20512;-57
2023/01/28 06:26:00;;;;;;;0.73;0.63;;;;;;;2.90;88.74;96361.75;5006208;28;20053;-57
2023/01/28 06:28:27;;;;;;;0.40;0.40;;;;;;;3.44;88.04;96415.22;5005860;28;20054;-57
2023/01/28 06:30:53;;;;;;;0.50;0.50;;;;;;;3.53;85.93;96402.22;5004538;28;20136;-57
2023/01/28 06:33:21;;;;;;;0.40;0.40;;;;;;;3.17;86.90;96350.19;5004663;28;20081;-57
2023/01/28 06:35:48;;;;;;;2.70;2.50;;;;;;;3.62;86.17;96418.56;5005574;28;20319;-57
2023/01/28 06:38:14;;;;;;;0.40;0.40;;;;;;;3.71;86.24;96419.25;5006309;28;20116;-57
2023/01/28 06:40:41;;;;;;;0.40;0.40;;;;;;;3.50;84.38;96345.44;5004356;28;20115;-55
2023/01/28 06:43:07;;;;;;;0.40;0.40;;;;;;;3.73;83.76;96404.06;5003048;28;20534;-56
2023/01/28 06:45:34;;;;;;;0.60;0.60;;;;;;;3.01;82.87;96294.53;5002278;28;20042;-59
2023/01/28 06:48:01;;;;;;;0.50;0.50;;;;;;;3.47;83.03;96354.34;5004031;28;20192;-56
2023/01/28 06:50:29;;;;;;;0.80;0.80;;;;;;;2.08;83.53;96155.09;5005063;28;20046;-57
2023/01/28 06:52:56;;;;;;;2.33;1.17;;;;;;;2.82;82.70;96239.59;5004352;28;20096;-58
2023/01/28 06:55:22;;;;;;;0.82;0.82;;;;;;;4.01;83.56;96406.94;5004758;28;20050;-57
2023/01/28 06:57:49;;;;;;;0.90;0.90;;;;;;;4.18;83.62;96431.34;5002752;28;20085;-57
2023/01/28 07:00:16;;;;;;;1.08;1.08;;;;;;;4.32;83.34;96440.00;5004844;28;20512;-57
2023/01/28 07:02:44;;;;;;;0.50;0.50;;;;;;;4.40;81.93;96426.16;5005108;28;20427;-57
2023/01/28 07:05:10;;;;;;;0.50;0.50;;;;;;;4.73;82.11;96441.63;4995734;28;20053;-59
2023/01/28 07:07:37;;;;;;;0.60;0.60;;;;;;;4.68;80.18;96432.50;4996314;28;20474;-57
2023/01/28 07:10:07;;;;;;;0.70;0.70;;;;;;;4.17;78.95;96370.22;5004801;28;20046;-57
2023/01/28 07:12:34;;;;;;;1.05;1.05;;;;;;;4.87;79.08;96444.78;5004828;28;20058;-57
2023/01/28 07:15:01;;;;;;;0.50;0.50;;;;;;;4.89;78.08;96475.41;4995244;28;20553;-56
2023/01/28 07:17:27;;;;;;;0.50;0.50;;;;;;;4.52;77.86;96412.44;5002662;28;20099;-56
2023/01/28 07:19:54;;;;;;;0.65;0.65;;;;;;;4.85;76.59;96452.56;5004880;28;20057;-55
2023/01/28 07:22:21;;;;;;;2.35;2.25;;;;;;;5.06;75.67;96447.69;5000227;28;20130;-56
2023/01/28 07:24:47;;;;;;;0.60;0.60;;;;;;;5.13;76.01;96461.59;5005082;28;20104;-56
2023/01/28 07:27:14;;;;;;;0.50;0.50;;;;;;;5.06;76.83;96464.16;5003253;28;20100;-57
2023/01/28 07:29:40;;;;;;;0.50;0.50;;;;;;;5.15;75.88;96467.56;5004703;28;20132;-56
2023/01/28 07:32:07;;;;;;;0.68;0.68;;;;;;;5.26;76.25;96469.47;5004304;28;20410;-56
2023/01/28 07:34:36;;;;;;;0.80;0.80;;;;;;;5.20;76.51;96472.78;5004921;28;20433;-57
2023/01/28 07:37:03;;;;;;;0.50;0.50;;;;;;;5.23;76.15;96475.63;5003377;28;20473;-56
2023/01/28 07:39:29;;;;;;;0.50;0.50;;;;;;;5.18;76.25;96470.41;5004225;28;20115;-57
2023/01/28 07:41:56;;;;;;;0.77;0.77;;;;;;;4.87;75.42;96398.94;5001031;28;20054;-55
2023/01/28 07:44:22;;;;;;;0.50;0.50;;;;;;;5.41;74.82;96476.91;4984525;28;20500;-55
2023/01/28 07:46:49;;;;;;;0.50;0.50;;;;;;;5.47;73.01;96469.25;4989073;28;20451;-54
2023/01/28 07:49:16;;;;;;;0.60;0.60;;;;;;;5.51;72.80;96475.63;5004509;28;20064;-55
2023/01/28 07:51:45;;;;;;;1.83;1.00;;;;;;;5.52;71.12;96460.72;5004209;28;20430;-55
2023/01/28 07:54:12;;;;;;;0.85;0.85;;;;;;;5.81;71.93;96474.06;5004649;28;20061;-55
2023/01/28 07:56:38;;;;;;;0.50;0.50;;;;;;;6.11;70.76;96495.31;5002229;28;20080;-55
2023/01/28 07:59:05;;;;;;;0.60;0.60;;;;;;;5.84;69.86;96421.16;5003708;28;20100;-55
2023/01/28 08:01:32;;;;;;;0.60;0.60;;;;;;;6.45;67.51;96482.75;5003582;28;20217;-56
2023/01/28 08:03:58;;;;;;;0.60;0.60;;;;;;;6.47;66.69;96474.94;5002890;28;20263;-55
2023/01/28 08:06:27;;;;;;;0.60;0.60;;;;;;;6.75;65.16;96472.06;4985661;28;20061;-55
2023/01/28 08:08:54;;;;;;;36.53;4.32;;;;;;;7.07;64.32;96479.03;5004278;28;20054;-57
2023/01/28 08:11:22;;;;;;;0.60;0.60;;;;;;;7.04;64.83;96488.00;5003841;28;20057;-56
2023/01/28 08:13:48;;;;;;;0.60;0.60;;;;;;;7.44;64.81;96481.00;5003858;28;20081;-56
2023/01/28 08:16:15;;;;;;;0.70;0.70;;;;;;;7.63;61.38;96489.22;5002611;28;20046;-55
2023/01/28 08:18:42;;;;;;;1.17;1.17;;;;;;;7.96;59.07;96487.88;5003773;28;20045;-56
2023/01/28 08:21:08;;;;;;;8.15;3.03;;;;;;;7.38;58.87;96443.88;4995200;28;20046;-55
2023/01/28 08:23:35;;;;;;;0.70;0.70;;;;;;;8.23;57.80;96489.56;5011331;28;20058;-55
2023/01/28 08:26:02;;;;;;;1.13;1.05;;;;;;;8.14;57.35;96492.53;4984326;28;20121;-55
2023/01/28 08:28:29;;;;;;;0.70;0.70;;;;;;;7.58;57.56;96426.16;4999882;28;20053;-58
2023/01/28 08:30:58;;;;;;;0.70;0.70;;;;;;;7.73;56.94;96433.50;5002021;28;20061;-56
2023/01/28 08:33:25;;;;;;;0.90;0.90;;;;;;;8.07;56.50;96475.06;5003261;28;20203;-55
2023/01/28 08:35:52;;;;;;;0.68;0.68;;;;;;;8.45;56.37;96502.53;4999668;28;20487;-54
2023/01/28 08:38:19;;;;;;;0.70;0.70;;;;;;;8.27;56.29;96506.94;4998054;28;20049;-57
2023/01/28 08:40:46;;;;;;;0.90;0.90;;;;;;;8.07;58.10;96510.91;5001556;28;20066;-57
2023/01/28 08:43:13;;;;;;;1.40;1.40;;;;;;;8.13;58.63;96512.19;5000752;28;20114;-56
2023/01/28 08:45:40;;;;;;;0.70;0.70;;;;;;;8.40;59.33;96511.13;4998749;28;20112;-55
2023/01/28 08:48:13;;;;;;;0.80;0.80;;;;;;;8.28;57.76;96514.09;4991214;28;20512;-59
2023/01/28 08:50:40;;;;;;;;;;;;;;;8.52;59.54;96513.72;5000747;28;20341;-57
2023/01/28 08:53:11;;;;;;;1.45;1.15;;;;;;;8.37;57.61;96511.88;4995010;28;19976;-56
2023/01/28 08:55:38;;;;;;;0.70;0.70;;;;;;;8.48;58.81;96512.84;4996987;28;20298;-57
2023/01/28 08:58:07;;;;;;;0.70;0.70;;;;;;;8.60;56.60;96515.41;5001352;28;20072;-59
2023/01/28 09:00:34;;;;;;;0.70;0.70;;;;;;;8.50;56.87;96493.94;5001704;28;20050;-55
2023/01/28 09:03:01;;;;;;;0.70;0.70;;;;;;;6.89;56.65;96211.63;4998168;28;20043;-56
2023/01/28 09:05:32;;;;;;;0.70;0.70;;;;;;;9.06;56.11;96503.06;4984823;28;20061;-56
2023/01/28 09:08:08;;;;;;;0.70;0.70;;;;;;;9.29;54.88;96514.84;4994131;28;20128;-57
2023/01/28 09:10:38;;;;;;;0.70;0.70;;;;;;;9.52;53.74;96529.34;4998317;28;20498;-57
2023/01/28 09:13:07;;;;;;;0.73;0.73;;;;;;;9.01;52.79;96475.75;4990724;28;20050;-57
2023/01/28 09:15:34;;;;;;;0.70;0.70;;;;;;;9.71;51.81;96520.91;4992562;28;20046;-57
2023/01/28 09:18:01;;;;;;;1.30;1.30;;;;;;;9.56;53.32;96546.81;5002702;28;20163;-59
2023/01/28 09:20:27;;;;;;;0.70;0.70;;;;;;;8.56;53.61;96393.09;5006226;28;20061;-57
2023/01/28 09:22:54;;;;;;;0.80;0.80;;;;;;;9.47;52.57;96477.16;5003730;28;20045;-57
2023/01/28 09:25:21;;;;;;;0.88;0.88;;;;;;;9.72;51.58;96516.94;4999948;28;20050;-56
2023/01/28 09:27:47;;;;;;;1.25;1.20;;;;;;;9.13;50.85;96450.69;4999172;28;20077;-56
2023/01/28 09:30:14;;;;;;;1.02;0.90;;;;;;;9.07;54.63;96472.31;4996716;28;20113;-57
2023/01/28 09:32:42;;;;;;;1.05;1.00;;;;;;;7.15;52.75;96153.88;4994472;28;20509;-57
2023/01/28 09:35:09;;;;;;;0.90;0.90;;;;;;;8.98;52.62;96455.22;5004504;28;20061;-57
2023/01/28 09:37:35;;;;;;;1.02;1.02;;;;;;;9.50;51.93;96504.03;5003870;28;20602;-57
2023/01/28 09:40:03;;;;;;;0.93;0.93;;;;;;;9.42;50.63;96513.41;5006739;28;20104;-57
2023/01/28 09:42:55;;;;;;;0.85;0.85;;;;;;;9.33;49.96;96514.88;4999336;28;20195;-58
2023/01/28 09:45:42;;;;;;;0.80;0.80;;;;;;;9.18;51.88;96520.22;4997268;28;20050;-55
2023/01/28 09:48:20;;;;;;;5.72;0.80;;;;;;;8.85;52.68;96500.03;5000080;28;20075;-58
2023/01/28 09:50:52;;;;;;;0.80;0.80;;;;;;;9.67;50.77;96509.03;4997060;28;20120;-55
2023/01/28 09:53:23;;;;;;;0.73;0.73;;;;;;;9.15;49.82;96442.81;5014553;28;20053;-55
2023/01/28 09:56:00;;;;;;;1.52;1.42;;;;;;;9.35;51.15;96518.88;5010933;28;20056;-56
2023/01/28 09:58:27;;;;;;;1.65;1.60;;;;;;;8.97;52.00;96519.13;5005524;28;20088;-56
2023/01/28 10:01:29;;;;;;;0.80;0.80;;;;;;;8.86;52.33;96518.97;4989109;28;20059;-59
2023/01/28 10:04:08;;;;;;;0.68;0.68;;;;;;;8.22;52.14;96521.03;4986511;28;20583;-55
2023/01/28 10:07:01;;;;;;;0.70;0.70;;;;;;;8.05;53.09;96521.50;4986514;28;20084;-59
2023/01/28 10:09:47;;;;;;;0.60;0.60;;;;;;;7.93;53.21;96524.44;4986735;28;20062;-57
2023/01/28 10:12:19;;;;;;;1.00;1.00;;;;;;;8.36;53.54;96518.56;4989533;28;20054;-58
2023/01/28 10:14:52;;;;;;;0.90;0.90;;;;;;;8.07;52.77;96524.72;4987685;28;20492;-55
2023/01/28 10:17:19;;;;;;;0.80;0.80;;;;;;;7.61;52.82;96519.13;4995560;28;20384;-56
2023/01/28 10:19:56;;;;;;;0.80;0.80;;;;;;;6.95;53.69;96488.25;5005913;28;20056;-56
2023/01/28 10:22:31;;;;;;;0.60;0.60;;;;;;;7.56;54.50;96516.66;5004861;28;20054;-58
2023/01/28 10:25:05;;;;;;;0.90;0.90;;;;;;;7.47;54.86;96512.53;5005925;28;20053;-56
2023/01/28 10:27:35;;;;;;;0.60;0.60;;;;;;;7.89;55.58;96512.56;5006313;28;20156;-56
2023/01/28 10:30:24;;;;;;;0.60;0.60;;;;;;;8.09;54.55;96490.09;5004116;28;20578;-57
2023/01/28 10:33:04;;;;;;;0.70;0.70;;;;;;;8.14;53.57;96458.66;5004317;28;20185;-58
2023/01/28 10:35:37;;;;;;;0.70;0.70;;;;;;;8.53;52.11;96516.09;5004746;28;20436;-58
2023/01/28 10:38:09;;;;;;;0.98;0.98;;;;;;;7.94;52.86;96459.84;5005714;28;20112;-59
2023/01/28 10:40:35;;;;;;;1.25;1.15;;;;;;;7.41;53.67;96492.72;5006107;28;20084;-56
2023/01/28 10:43:02;;;;;;;0.70;0.70;;;;;;;7.61;52.24;96530.16;5005999;28;20054;-57
2023/01/28 10:45:36;;;;;;;0.80;0.80;;;;;;;7.67;53.02;96517.66;5005545;28;20500;-58
2023/01/28 10:48:21;;;;;;;1.48;0.77;;;;;;;7.13;53.66;96535.41;5005822;28;20050;-56
2023/01/28 10:50:52;;;;;;;0.80;0.80;;;;;;;7.41;52.64;96519.50;5006178;28;20527;-58
2023/01/28 10:53:19;;;;;;;0.95;0.75;;;;;;;6.87;53.57;96516.75;5003964;28;20072;-58
2023/01/28 10:55:48;;;;;;;2.63;2.17;;;;;;;7.07;54.91;96518.38;5005757;28;20054;-58
2023/01/28 10:58:24;;;;;;;2.72;1.17;;;;;;;6.68;53.46;96511.22;5004682;28;20060;-57
2023/01/28 11:00:58;;;;;;;1.35;1.33;;;;;;;6.53;54.47;96506.53;5005850;28;20053;-60
2023/01/28 11:03:33;;;;;;;11.45;5.97;;;;;;;6.96;52.61;96514.59;5005584;28;20049;-56
2023/01/28 11:06:01;;;;;;;0.70;0.70;;;;;;;6.62;52.79;96487.88;5005588;28;20137;-56
2023/01/28 11:08:29;;;;;;;0.90;0.90;;;;;;;6.27;53.43;96524.75;5004044;28;20050;-56
2023/01/28 11:10:56;;;;;;;0.73;0.73;;;;;;;6.67;54.76;96506.84;5005146;28;20057;-59
2023/01/28 11:13:26;;;;;;;1.10;1.00;;;;;;;6.65;54.15;96508.38;5005276;28;20176;-55
2023/01/28 11:16:05;;;;;;;1.08;0.98;;;;;;;5.99;54.13;96420.38;5005194;28;20112;-58
2023/01/28 11:18:39;;;;;;;1.00;0.90;;;;;;;6.69;54.26;96501.78;5004971;28;20068;-60
2023/01/28 11:21:17;;;;;;;1.98;0.73;;;;;;;6.32;54.13;96483.22;5005298;28;20065;-58
2023/01/28 11:23:57;;;;;;;4.32;1.42;;;;;;;6.49;54.53;96500.16;5005643;28;20108;-59
2023/01/28 11:26:37;;;;;;;1.00;0.80;;;;;;;5.90;55.33;96444.47;5005134;28;20057;-60
2023/01/28 11:29:05;;;;;;;0.60;0.60;;;;;;;6.21;54.91;96493.16;5004192;28;20099;-59
2023/01/28 11:31:42;;;;;;;5.03;2.03;;;;;;;6.43;55.31;96485.06;5004770;28;20050;-56
2023/01/28 11:34:14;;;;;;;1.42;0.90;;;;;;;6.46;56.25;96484.34;5003496;28;20054;-58
2023/01/28 11:36:50;;;;;;;1.92;1.25;;;;;;;6.43;54.11;96493.34;4995695;28;20108;-57
2023/01/28 11:39:27;;;;;;;1.48;0.90;;;;;;;5.80;55.34;96439.50;5004772;28;20091;-58
2023/01/28 11:42:02;;;;;;;2.17;0.90;;;;;;;6.11;55.97;96436.75;5002414;28;20080;-56
2023/01/28 11:44:29;;;;;;;0.65;0.65;;;;;;;6.06;55.15;96442.53;5004844;28;20050;-56
2023/01/28 11:47:02;;;;;;;1.83;1.38;;;;;;;6.66;55.36;96494.25;5004457;28;20062;-58
2023/01/28 11:50:07;;;;;;;1.23;0.90;;;;;;;6.51;54.91;96495.09;5003568;28;20154;-58
2023/01/28 11:52:48;;;;;;;0.80;0.80;;;;;;;6.29;56.31;96498.50;5003571;28;20171;-56
2023/01/28 11:55:39;;;;;;;1.52;0.90;;;;;;;6.40;56.17;96494.06;5004640;28;20312;-58
2023/01/28 11:58:14;;;;;;;1.00;1.00;;;;;;;6.29;56.40;96490.25;5002999;28;20050;-59
2023/01/28 12:00:53;;;;;;;1.75;1.10;;;;;;;6.42;55.91;96502.72;5002904;28;20054;-56
2023/01/28 12:03:50;;;;;;;1.08;0.95;;;;;;;6.92;55.48;96512.94;5004301;28;20062;-57
2023/01/28 12:06:42;;;;;;;0.80;0.80;;;;;;;7.05;55.79;96501.41;5004230;28;20049;-59
2023/01/28 12:09:16;;;;;;;0.95;0.85;;;;;;;6.66;56.62;96505.25;5004290;28;20061;-58
2023/01/28 12:12:10;;;;;;;0.70;0.70;;;;;;;6.59;57.15;96505.09;5004716;28;20140;-57
2023/01/28 12:15:24;;;;;;;1.48;1.38;;;;;;;5.64;55.62;96375.50;5004823;28;20081;-56
2023/01/28 12:18:30;;;;;;;0.80;0.80;;;;;;;6.30;56.69;96504.78;5003908;28;20053;-59
2023/01/28 12:21:09;;;;;;;0.70;0.70;;;;;;;6.52;57.76;96507.69;5000781;28;20447;-58
2023/01/28 12:23:39;;;;;;;0.60;0.60;;;;;;;6.57;57.35;96506.63;5004471;28;20560;-58
2023/01/28 12:26:15;;;;;;;1.67;1.50;;;;;;;6.62;56.73;96504.41;5004098;28;20084;-59
2023/01/28 12:28:54;;;;;;;0.60;0.60;;;;;;;6.69;56.44;96501.78;5004002;28;20120;-59